createdAt,value
2017-05-03T00:00:00.705Z,829.65
2017-05-03T00:00:05.141Z,829.61
2017-05-03T00:00:09.574Z,829.65
2017-05-03T00:00:13.882Z,829.68
2017-05-03T00:00:18.322Z,829.66
2017-05-03T00:00:22.750Z,829.59
2017-05-03T00:00:27.173Z,829.59
2017-05-03T00:00:31.602Z,829.66
2017-05-03T00:00:36.038Z,829.67
2017-05-03T00:00:40.393Z,829.64
2017-05-03T00:00:44.822Z,829.66
2017-05-03T00:00:49.136Z,829.66
2017-05-03T00:00:53.446Z,829.66
2017-05-03T00:00:57.906Z,829.6
2017-05-03T00:01:02.332Z,829.66
2017-05-03T00:01:06.769Z,829.67
2017-05-03T00:01:11.086Z,829.6
2017-05-03T00:01:15.275Z,829.62
2017-05-03T00:01:19.727Z,829.64
2017-05-03T00:01:24.160Z,829.63
2017-05-03T00:01:28.588Z,829.67
2017-05-03T00:01:33.014Z,829.64
2017-05-03T00:01:37.211Z,829.62
2017-05-03T00:01:41.645Z,829.62
2017-05-03T00:01:46.076Z,829.64
2017-05-03T00:01:50.504Z,829.63
2017-05-03T00:01:54.935Z,829.62
2017-05-03T00:01:59.365Z,829.61
2017-05-03T00:02:03.553Z,829.63
2017-05-03T00:02:07.873Z,829.64
2017-05-03T00:02:12.195Z,829.62
2017-05-03T00:02:16.383Z,829.62
2017-05-03T00:02:20.817Z,829.61
2017-05-03T00:02:25.151Z,829.61
2017-05-03T00:02:29.638Z,829.59
2017-05-03T00:02:34.066Z,829.62
2017-05-03T00:02:38.497Z,829.62
2017-05-03T00:02:42.929Z,829.61
2017-05-03T00:02:47.374Z,829.62
2017-05-03T00:02:51.805Z,829.61
2017-05-03T00:02:56.112Z,829.6
2017-05-03T00:03:00.547Z,829.61
2017-05-03T00:03:05.093Z,829.6
2017-05-03T00:03:09.525Z,829.57
2017-05-03T00:03:13.833Z,829.61
2017-05-03T00:03:18.151Z,829.62
2017-05-03T00:03:22.594Z,829.62
2017-05-03T00:03:26.669Z,829.57
2017-05-03T00:03:31.104Z,829.53
2017-05-03T00:03:35.540Z,829.55
2017-05-03T00:03:39.868Z,829.57
2017-05-03T00:03:44.343Z,829.6
2017-05-03T00:03:48.652Z,829.6
2017-05-03T00:03:53.079Z,829.63
2017-05-03T00:03:57.517Z,829.57
2017-05-03T00:04:01.945Z,829.61
2017-05-03T00:04:06.257Z,829.61
2017-05-03T00:04:10.570Z,829.6
2017-05-03T00:04:14.533Z,829.59
2017-05-03T00:04:18.731Z,829.62
2017-05-03T00:04:23.155Z,829.58
2017-05-03T00:04:27.588Z,829.63
2017-05-03T00:04:31.911Z,829.63
2017-05-03T00:04:36.344Z,829.59
2017-05-03T00:04:40.547Z,829.56
2017-05-03T00:04:44.977Z,829.59
2017-05-03T00:04:49.405Z,829.57
2017-05-03T00:04:53.870Z,829.57
2017-05-03T00:04:58.074Z,829.59
2017-05-03T00:05:02.851Z,829.6
2017-05-03T00:05:07.158Z,829.6
2017-05-03T00:05:11.595Z,829.58
2017-05-03T00:05:15.790Z,829.59
2017-05-03T00:05:20.103Z,829.6
2017-05-03T00:05:24.538Z,829.59
2017-05-03T00:05:28.758Z,829.55
2017-05-03T00:05:33.182Z,829.57
2017-05-03T00:05:37.490Z,829.57
2017-05-03T00:05:41.920Z,829.62
2017-05-03T00:05:46.350Z,829.59
2017-05-03T00:05:50.542Z,829.6
2017-05-03T00:05:54.970Z,829.6
2017-05-03T00:05:59.449Z,829.55
2017-05-03T00:06:03.634Z,829.54
2017-05-03T00:06:08.066Z,829.56
2017-05-03T00:06:12.519Z,829.56
2017-05-03T00:06:16.829Z,829.59
2017-05-03T00:06:21.255Z,829.62
2017-05-03T00:06:25.722Z,829.61
2017-05-03T00:06:30.153Z,829.59
2017-05-03T00:06:34.577Z,829.63
2017-05-03T00:06:38.896Z,829.58
2017-05-03T00:06:43.339Z,829.59
2017-05-03T00:06:47.773Z,829.61
2017-05-03T00:06:52.203Z,829.59
2017-05-03T00:06:56.638Z,829.61
2017-05-03T00:07:00.833Z,829.6
2017-05-03T00:07:05.028Z,829.61
2017-05-03T00:07:09.458Z,829.58
2017-05-03T00:07:13.765Z,829.59
2017-05-03T00:07:18.200Z,829.61
2017-05-03T00:07:22.630Z,829.59
2017-05-03T00:07:27.058Z,829.59
2017-05-03T00:07:31.248Z,829.59
2017-05-03T00:07:35.675Z,829.58
2017-05-03T00:07:40.006Z,829.6
2017-05-03T00:07:44.429Z,829.57
2017-05-03T00:07:48.739Z,829.59
2017-05-03T00:07:53.169Z,829.6
2017-05-03T00:07:57.617Z,829.62
2017-05-03T00:08:01.814Z,829.6
2017-05-03T00:08:06.242Z,829.58
2017-05-03T00:08:10.565Z,829.54
2017-05-03T00:08:14.776Z,829.61
2017-05-03T00:08:19.210Z,829.58
2017-05-03T00:08:23.679Z,829.6
2017-05-03T00:08:27.989Z,829.58
2017-05-03T00:08:32.419Z,829.61
2017-05-03T00:08:36.738Z,829.55
2017-05-03T00:08:41.226Z,829.62
2017-05-03T00:08:45.428Z,829.64
2017-05-03T00:08:49.867Z,829.6
2017-05-03T00:08:54.186Z,829.6
2017-05-03T00:08:58.383Z,829.59
2017-05-03T00:09:02.696Z,829.61
2017-05-03T00:09:07.130Z,829.61
2017-05-03T00:09:11.330Z,829.57
2017-05-03T00:09:15.538Z,829.59
2017-05-03T00:09:19.974Z,829.6
2017-05-03T00:09:24.412Z,829.6
2017-05-03T00:09:28.845Z,829.61
2017-05-03T00:09:33.041Z,829.58
2017-05-03T00:09:37.479Z,829.52
2017-05-03T00:09:41.909Z,829.59
2017-05-03T00:09:46.332Z,829.57
2017-05-03T00:09:50.766Z,829.59
2017-05-03T00:09:55.200Z,829.53
2017-05-03T00:09:59.633Z,829.56
2017-05-03T00:10:04.246Z,829.61
2017-05-03T00:10:08.561Z,829.55
2017-05-03T00:10:12.911Z,829.58
2017-05-03T00:10:17.222Z,829.6
2017-05-03T00:10:21.541Z,829.57
2017-05-03T00:10:25.876Z,829.58
2017-05-03T00:10:30.302Z,829.59
2017-05-03T00:10:34.495Z,829.54
2017-05-03T00:10:38.928Z,829.56
2017-05-03T00:10:43.365Z,829.53
2017-05-03T00:10:47.797Z,829.53
2017-05-03T00:10:52.230Z,829.5
2017-05-03T00:10:56.669Z,829.52
2017-05-03T00:11:01.092Z,829.51
2017-05-03T00:11:05.668Z,829.53
2017-05-03T00:11:09.982Z,829.58
2017-05-03T00:11:14.183Z,829.55
2017-05-03T00:11:18.614Z,829.58
2017-05-03T00:11:22.921Z,829.55
2017-05-03T00:11:27.234Z,829.53
2017-05-03T00:11:31.560Z,829.54
2017-05-03T00:11:35.992Z,829.53
2017-05-03T00:11:40.424Z,829.56
2017-05-03T00:11:44.859Z,829.46
2017-05-03T00:11:49.171Z,829.55
2017-05-03T00:11:53.483Z,829.54
2017-05-03T00:11:57.803Z,829.56
2017-05-03T00:12:02.239Z,829.54
2017-05-03T00:12:06.669Z,829.53
2017-05-03T00:12:10.981Z,829.48
2017-05-03T00:12:15.412Z,829.52
2017-05-03T00:12:19.606Z,829.5
2017-05-03T00:12:24.037Z,829.5
2017-05-03T00:12:28.471Z,829.53
2017-05-03T00:12:32.823Z,829.51
2017-05-03T00:12:37.258Z,829.5
2017-05-03T00:12:41.695Z,829.48
2017-05-03T00:12:46.130Z,829.5
2017-05-03T00:12:50.577Z,829.46
2017-05-03T00:12:55.019Z,829.46
2017-05-03T00:12:59.336Z,829.43
2017-05-03T00:13:03.536Z,829.45
2017-05-03T00:13:08.004Z,829.48
2017-05-03T00:13:12.196Z,829.48
2017-05-03T00:13:16.402Z,829.49
2017-05-03T00:13:20.842Z,829.46
2017-05-03T00:13:25.275Z,829.5
2017-05-03T00:13:29.599Z,829.49
2017-05-03T00:13:34.040Z,829.49
2017-05-03T00:13:38.485Z,829.46
2017-05-03T00:13:42.924Z,829.45
2017-05-03T00:13:47.353Z,829.45
2017-05-03T00:13:51.786Z,829.47
2017-05-03T00:13:56.104Z,829.44
2017-05-03T00:14:00.306Z,829.45
2017-05-03T00:14:04.772Z,829.4
2017-05-03T00:14:09.251Z,829.4
2017-05-03T00:14:13.611Z,829.4
2017-05-03T00:14:17.926Z,829.39
2017-05-03T00:14:22.371Z,829.41
2017-05-03T00:14:26.692Z,829.41
2017-05-03T00:14:31.129Z,829.4
2017-05-03T00:14:35.556Z,829.41
2017-05-03T00:14:39.990Z,829.39
2017-05-03T00:14:44.423Z,829.44
2017-05-03T00:14:48.860Z,829.44
2017-05-03T00:14:53.290Z,829.43
2017-05-03T00:14:57.731Z,829.41
2017-05-03T00:15:02.471Z,829.43
2017-05-03T00:15:06.663Z,829.41
2017-05-03T00:15:10.849Z,829.4
2017-05-03T00:15:15.192Z,829.43
2017-05-03T00:15:19.623Z,829.39
2017-05-03T00:15:24.057Z,829.38
2017-05-03T00:15:28.481Z,829.39
2017-05-03T00:15:32.678Z,829.38
2017-05-03T00:15:37.105Z,829.34
2017-05-03T00:15:41.537Z,829.32
2017-05-03T00:15:45.968Z,829.38
2017-05-03T00:15:50.400Z,829.35
2017-05-03T00:15:54.824Z,829.35
2017-05-03T00:15:59.252Z,829.37
2017-05-03T00:16:03.559Z,829.36
2017-05-03T00:16:07.874Z,829.37
2017-05-03T00:16:12.340Z,829.36
2017-05-03T00:16:16.778Z,829.37
2017-05-03T00:16:21.095Z,829.34
2017-05-03T00:16:25.521Z,829.29
2017-05-03T00:16:29.843Z,829.32
2017-05-03T00:16:34.272Z,829.27
2017-05-03T00:16:38.706Z,829.34
2017-05-03T00:16:43.137Z,829.36
2017-05-03T00:16:47.449Z,829.34
2017-05-03T00:16:51.767Z,829.33
2017-05-03T00:16:56.224Z,829.29
2017-05-03T00:17:00.654Z,829.31
2017-05-03T00:17:05.077Z,829.29
2017-05-03T00:17:09.520Z,829.3
2017-05-03T00:17:13.831Z,829.33
2017-05-03T00:17:18.149Z,829.34
2017-05-03T00:17:22.573Z,829.31
2017-05-03T00:17:26.892Z,829.3
2017-05-03T00:17:31.325Z,829.33
2017-05-03T00:17:35.751Z,829.29
2017-05-03T00:17:40.083Z,829.31
2017-05-03T00:17:44.557Z,829.29
2017-05-03T00:17:48.985Z,829.28
2017-05-03T00:17:53.186Z,829.26
2017-05-03T00:17:57.381Z,829.27
2017-05-03T00:18:01.815Z,829.26
2017-05-03T00:18:06.340Z,829.24
2017-05-03T00:18:10.649Z,829.23
2017-05-03T00:18:14.851Z,829.25
2017-05-03T00:18:19.159Z,829.23
2017-05-03T00:18:23.608Z,829.24
2017-05-03T00:18:27.928Z,829.24
2017-05-03T00:18:32.134Z,829.23
2017-05-03T00:18:36.564Z,829.23
2017-05-03T00:18:40.995Z,829.23
2017-05-03T00:18:45.328Z,829.25
2017-05-03T00:18:50.067Z,829.21
2017-05-03T00:18:54.503Z,829.21
2017-05-03T00:18:58.987Z,829.2
2017-05-03T00:19:03.562Z,829.23
2017-05-03T00:19:07.996Z,829.22
2017-05-03T00:19:12.426Z,829.18
2017-05-03T00:19:16.624Z,829.19
2017-05-03T00:19:21.115Z,829.18
2017-05-03T00:19:25.199Z,829.2
2017-05-03T00:19:29.633Z,829.18
2017-05-03T00:19:34.065Z,829.13
2017-05-03T00:19:38.380Z,829.18
2017-05-03T00:19:42.808Z,829.18
2017-05-03T00:19:47.242Z,829.18
2017-05-03T00:19:51.672Z,829.14
2017-05-03T00:19:55.987Z,829.14
2017-05-03T00:20:00.322Z,829.13
2017-05-03T00:20:04.850Z,829.16
2017-05-03T00:20:08.929Z,829.14
2017-05-03T00:20:13.165Z,829.13
2017-05-03T00:20:17.357Z,829.14
2017-05-03T00:20:21.781Z,829.12
2017-05-03T00:20:26.093Z,829.15
2017-05-03T00:20:30.554Z,829.12
2017-05-03T00:20:34.979Z,829.12
2017-05-03T00:20:39.415Z,829.13
2017-05-03T00:20:43.852Z,829.13
2017-05-03T00:20:48.213Z,829.12
2017-05-03T00:20:52.640Z,829.11
2017-05-03T00:20:57.072Z,829.13
2017-05-03T00:21:01.270Z,829.13
2017-05-03T00:21:05.701Z,829.11
2017-05-03T00:21:10.144Z,829.12
2017-05-03T00:21:14.451Z,829.13
2017-05-03T00:21:18.763Z,829.1
2017-05-03T00:21:23.199Z,829.08
2017-05-03T00:21:27.631Z,829.08
2017-05-03T00:21:32.054Z,829.09
2017-05-03T00:21:36.482Z,829.06
2017-05-03T00:21:40.915Z,829.05
2017-05-03T00:21:45.352Z,829.06
2017-05-03T00:21:49.784Z,829.07
2017-05-03T00:21:54.252Z,829.04
2017-05-03T00:21:58.561Z,829.07
2017-05-03T00:22:02.758Z,829.07
2017-05-03T00:22:06.832Z,829.07
2017-05-03T00:22:11.024Z,829.09
2017-05-03T00:22:15.337Z,829.07
2017-05-03T00:22:19.643Z,829.04
2017-05-03T00:22:24.074Z,829.05
2017-05-03T00:22:28.509Z,829.07
2017-05-03T00:22:32.935Z,829.04
2017-05-03T00:22:37.360Z,829.01
2017-05-03T00:22:41.554Z,829
2017-05-03T00:22:45.989Z,829.02
2017-05-03T00:22:50.424Z,829.03
2017-05-03T00:22:54.856Z,829.04
2017-05-03T00:22:59.167Z,829.06
2017-05-03T00:23:03.607Z,829.06
2017-05-03T00:23:07.916Z,829.06
2017-05-03T00:23:12.230Z,829.04
2017-05-03T00:23:16.434Z,829.03
2017-05-03T00:23:20.873Z,829.05
2017-05-03T00:23:25.190Z,828.99
2017-05-03T00:23:29.627Z,829.01
2017-05-03T00:23:34.068Z,829.05
2017-05-03T00:23:38.501Z,829.01
2017-05-03T00:23:42.936Z,829.03
2017-05-03T00:23:47.368Z,829.02
2017-05-03T00:23:51.806Z,829.03
2017-05-03T00:23:56.245Z,829.02
2017-05-03T00:24:00.556Z,829.05
2017-05-03T00:24:05.147Z,829.03
2017-05-03T00:24:09.467Z,828.97
2017-05-03T00:24:13.675Z,828.98
2017-05-03T00:24:17.870Z,829.01
2017-05-03T00:24:22.302Z,829.03
2017-05-03T00:24:26.620Z,828.98
2017-05-03T00:24:31.102Z,829.03
2017-05-03T00:24:35.417Z,829.03
2017-05-03T00:24:39.849Z,829.03
2017-05-03T00:24:44.287Z,829.02
2017-05-03T00:24:48.713Z,829.03
2017-05-03T00:24:53.141Z,829.05
2017-05-03T00:24:57.461Z,829.02
2017-05-03T00:25:01.653Z,829.02
2017-05-03T00:25:06.088Z,829.04
2017-05-03T00:25:10.321Z,829.02
2017-05-03T00:25:14.627Z,829.05
2017-05-03T00:25:19.051Z,829.06
2017-05-03T00:25:23.521Z,829.07
2017-05-03T00:25:27.952Z,829.05
2017-05-03T00:25:32.384Z,829.04
2017-05-03T00:25:36.805Z,829.03
2017-05-03T00:25:41.236Z,829.03
2017-05-03T00:25:45.664Z,829.06
2017-05-03T00:25:49.974Z,829.05
2017-05-03T00:25:54.399Z,829.05
2017-05-03T00:25:58.718Z,829.05
2017-05-03T00:26:03.278Z,829.06
2017-05-03T00:26:07.706Z,829.05
2017-05-03T00:26:11.902Z,828.98
2017-05-03T00:26:16.090Z,828.99
2017-05-03T00:26:20.540Z,829.07
2017-05-03T00:26:24.854Z,829.04
2017-05-03T00:26:29.281Z,829.05
2017-05-03T00:26:33.704Z,829.07
2017-05-03T00:26:38.126Z,829.02
2017-05-03T00:26:42.564Z,829.04
2017-05-03T00:26:47.001Z,829.06
2017-05-03T00:26:51.312Z,829
2017-05-03T00:26:55.738Z,829
2017-05-03T00:27:00.048Z,829.03
2017-05-03T00:27:04.358Z,829.03
2017-05-03T00:27:08.820Z,829.1
2017-05-03T00:27:13.006Z,829.04
2017-05-03T00:27:17.310Z,829.07
2017-05-03T00:27:21.615Z,829.07
2017-05-03T00:27:26.040Z,829.06
2017-05-03T00:27:30.352Z,829.07
2017-05-03T00:27:34.669Z,829.08
2017-05-03T00:27:39.110Z,829.05
2017-05-03T00:27:43.540Z,829.08
2017-05-03T00:27:47.972Z,829.08
2017-05-03T00:27:52.413Z,829.11
2017-05-03T00:27:56.725Z,829.11
2017-05-03T00:28:01.044Z,829.03
2017-05-03T00:28:05.412Z,829.06
2017-05-03T00:28:09.845Z,829.12
2017-05-03T00:28:14.056Z,829.12
2017-05-03T00:28:18.500Z,829.1
2017-05-03T00:28:22.933Z,829.11
2017-05-03T00:28:27.366Z,829.1
2017-05-03T00:28:31.804Z,829.09
2017-05-03T00:28:36.245Z,829.12
2017-05-03T00:28:40.674Z,829.07
2017-05-03T00:28:45.102Z,829.05
2017-05-03T00:28:49.533Z,829.1
2017-05-03T00:28:53.875Z,829.1
2017-05-03T00:28:58.199Z,829.09
2017-05-03T00:29:02.882Z,829.13
2017-05-03T00:29:07.309Z,829.1
2017-05-03T00:29:11.620Z,829.1
2017-05-03T00:29:16.056Z,829.14
2017-05-03T00:29:20.486Z,829.11
2017-05-03T00:29:24.922Z,829.1
2017-05-03T00:29:29.359Z,829.12
2017-05-03T00:29:33.673Z,829.12
2017-05-03T00:29:37.863Z,829.13
2017-05-03T00:29:42.296Z,829.12
2017-05-03T00:29:46.772Z,829.13
2017-05-03T00:29:51.196Z,829.13
2017-05-03T00:29:55.630Z,829.16
2017-05-03T00:29:59.998Z,829.16
2017-05-03T00:30:04.193Z,829.14
2017-05-03T00:30:08.509Z,829.18
2017-05-03T00:30:12.588Z,829.14
2017-05-03T00:30:17.024Z,829.14
2017-05-03T00:30:21.451Z,829.17
2017-05-03T00:30:25.889Z,829.14
2017-05-03T00:30:30.315Z,829.14
2017-05-03T00:30:34.630Z,829.15
2017-05-03T00:30:38.832Z,829.16
2017-05-03T00:30:43.258Z,829.14
2017-05-03T00:30:47.682Z,829.13
2017-05-03T00:30:52.107Z,829.19
2017-05-03T00:30:56.534Z,829.16
2017-05-03T00:31:00.840Z,829.17
2017-05-03T00:31:05.568Z,829.19
2017-05-03T00:31:09.881Z,829.19
2017-05-03T00:31:14.189Z,829.11
2017-05-03T00:31:18.609Z,829.19
2017-05-03T00:31:23.031Z,829.17
2017-05-03T00:31:27.337Z,829.17
2017-05-03T00:31:31.540Z,829.17
2017-05-03T00:31:35.971Z,829.18
2017-05-03T00:31:40.395Z,829.22
2017-05-03T00:31:44.825Z,829.19
2017-05-03T00:31:49.271Z,829.18
2017-05-03T00:31:53.698Z,829.23
2017-05-03T00:31:58.129Z,829.19
2017-05-03T00:32:02.445Z,829.23
2017-05-03T00:32:06.750Z,829.19
2017-05-03T00:32:11.060Z,829.2
2017-05-03T00:32:15.494Z,829.2
2017-05-03T00:32:19.806Z,829.2
2017-05-03T00:32:24.228Z,829.18
2017-05-03T00:32:28.543Z,829.24
2017-05-03T00:32:32.857Z,829.22
2017-05-03T00:32:37.049Z,829.18
2017-05-03T00:32:41.475Z,829.22
2017-05-03T00:32:45.949Z,829.23
2017-05-03T00:32:50.379Z,829.22
2017-05-03T00:32:54.802Z,829.21
2017-05-03T00:32:59.114Z,829.23
2017-05-03T00:33:03.464Z,829.24
2017-05-03T00:33:07.888Z,829.27
2017-05-03T00:33:12.334Z,829.26
2017-05-03T00:33:16.521Z,829.23
2017-05-03T00:33:20.725Z,829.24
2017-05-03T00:33:25.159Z,829.24
2017-05-03T00:33:29.467Z,829.23
2017-05-03T00:33:33.681Z,829.25
2017-05-03T00:33:38.013Z,829.23
2017-05-03T00:33:42.447Z,829.25
2017-05-03T00:33:46.873Z,829.26
2017-05-03T00:33:51.296Z,829.27
2017-05-03T00:33:55.738Z,829.21
2017-05-03T00:34:00.105Z,829.21
2017-05-03T00:34:04.539Z,829.26
2017-05-03T00:34:08.849Z,829.27
2017-05-03T00:34:13.165Z,829.27
2017-05-03T00:34:17.246Z,829.21
2017-05-03T00:34:21.674Z,829.28
2017-05-03T00:34:25.872Z,829.24
2017-05-03T00:34:30.306Z,829.27
2017-05-03T00:34:34.730Z,829.25
2017-05-03T00:34:39.161Z,829.27
2017-05-03T00:34:43.589Z,829.27
2017-05-03T00:34:47.902Z,829.28
2017-05-03T00:34:52.331Z,829.27
2017-05-03T00:34:56.651Z,829.26
2017-05-03T00:35:01.090Z,829.27
2017-05-03T00:35:05.325Z,829.28
2017-05-03T00:35:09.638Z,829.27
2017-05-03T00:35:13.840Z,829.29
2017-05-03T00:35:18.286Z,829.29
2017-05-03T00:35:22.592Z,829.3
2017-05-03T00:35:27.018Z,829.28
2017-05-03T00:35:31.338Z,829.28
2017-05-03T00:35:35.767Z,829.28
2017-05-03T00:35:40.194Z,829.31
2017-05-03T00:35:44.628Z,829.26
2017-05-03T00:35:48.829Z,829.29
2017-05-03T00:35:53.266Z,829.27
2017-05-03T00:35:57.583Z,829.32
2017-05-03T00:36:02.079Z,829.33
2017-05-03T00:36:06.443Z,829.29
2017-05-03T00:36:10.640Z,829.29
2017-05-03T00:36:14.609Z,829.3
2017-05-03T00:36:19.065Z,829.3
2017-05-03T00:36:23.487Z,829.32
2017-05-03T00:36:27.916Z,829.32
2017-05-03T00:36:32.356Z,829.35
2017-05-03T00:36:36.788Z,829.31
2017-05-03T00:36:41.222Z,829.34
2017-05-03T00:36:45.653Z,829.33
2017-05-03T00:36:49.968Z,829.3
2017-05-03T00:36:54.393Z,829.32
2017-05-03T00:36:58.824Z,829.32
2017-05-03T00:37:03.231Z,829.33
2017-05-03T00:37:07.666Z,829.36
2017-05-03T00:37:12.099Z,829.32
2017-05-03T00:37:16.412Z,829.37
2017-05-03T00:37:20.834Z,829.34
2017-05-03T00:37:25.162Z,829.37
2017-05-03T00:37:29.589Z,829.31
2017-05-03T00:37:34.030Z,829.33
2017-05-03T00:37:38.461Z,829.36
2017-05-03T00:37:42.903Z,829.34
2017-05-03T00:37:47.333Z,829.35
2017-05-03T00:37:51.764Z,829.37
2017-05-03T00:37:56.197Z,829.35
2017-05-03T00:38:00.399Z,829.39
2017-05-03T00:38:05.010Z,829.36
2017-05-03T00:38:09.203Z,829.38
2017-05-03T00:38:13.632Z,829.36
2017-05-03T00:38:17.949Z,829.36
2017-05-03T00:38:22.407Z,829.37
2017-05-03T00:38:26.834Z,829.35
2017-05-03T00:38:31.146Z,829.39
2017-05-03T00:38:35.582Z,829.41
2017-05-03T00:38:40.018Z,829.38
2017-05-03T00:38:44.447Z,829.39
2017-05-03T00:38:48.776Z,829.39
2017-05-03T00:38:53.204Z,829.37
2017-05-03T00:38:57.520Z,829.37
2017-05-03T00:39:02.208Z,829.37
2017-05-03T00:39:06.643Z,829.39
2017-05-03T00:39:10.962Z,829.41
2017-05-03T00:39:15.167Z,829.41
2017-05-03T00:39:19.603Z,829.41
2017-05-03T00:39:24.041Z,829.41
2017-05-03T00:39:28.471Z,829.38
2017-05-03T00:39:32.780Z,829.43
2017-05-03T00:39:37.088Z,829.43
2017-05-03T00:39:41.521Z,829.42
2017-05-03T00:39:45.833Z,829.43
2017-05-03T00:39:50.255Z,829.42
2017-05-03T00:39:54.567Z,829.41
2017-05-03T00:39:58.775Z,829.44
2017-05-03T00:40:03.237Z,829.45
2017-05-03T00:40:07.428Z,829.45
2017-05-03T00:40:11.853Z,829.45
2017-05-03T00:40:16.176Z,829.42
2017-05-03T00:40:20.598Z,829.45
2017-05-03T00:40:25.024Z,829.46
2017-05-03T00:40:29.453Z,829.45
2017-05-03T00:40:33.887Z,829.45
2017-05-03T00:40:38.080Z,829.46
2017-05-03T00:40:42.511Z,829.44
2017-05-03T00:40:46.939Z,829.43
2017-05-03T00:40:51.255Z,829.42
2017-05-03T00:40:55.689Z,829.44
2017-05-03T00:40:59.880Z,829.47
2017-05-03T00:41:04.305Z,829.51
2017-05-03T00:41:08.728Z,829.48
2017-05-03T00:41:13.040Z,829.49
2017-05-03T00:41:17.390Z,829.49
2017-05-03T00:41:21.812Z,829.5
2017-05-03T00:41:26.244Z,829.48
2017-05-03T00:41:30.567Z,829.51
2017-05-03T00:41:34.760Z,829.53
2017-05-03T00:41:39.191Z,829.51
2017-05-03T00:41:43.619Z,829.5
2017-05-03T00:41:48.055Z,829.51
2017-05-03T00:41:52.366Z,829.5
2017-05-03T00:41:56.673Z,829.49
2017-05-03T00:42:00.982Z,829.51
2017-05-03T00:42:05.406Z,829.49
2017-05-03T00:42:09.878Z,829.53
2017-05-03T00:42:14.079Z,829.53
2017-05-03T00:42:18.505Z,829.53
2017-05-03T00:42:22.817Z,829.53
2017-05-03T00:42:27.245Z,829.51
2017-05-03T00:42:31.668Z,829.53
2017-05-03T00:42:36.094Z,829.51
2017-05-03T00:42:40.414Z,829.49
2017-05-03T00:42:44.888Z,829.5
2017-05-03T00:42:49.194Z,829.51
2017-05-03T00:42:53.631Z,829.57
2017-05-03T00:42:58.079Z,829.57
2017-05-03T00:43:02.395Z,829.53
2017-05-03T00:43:06.825Z,829.56
2017-05-03T00:43:11.253Z,829.57
2017-05-03T00:43:15.484Z,829.59
2017-05-03T00:43:19.798Z,829.56
2017-05-03T00:43:23.997Z,829.55
2017-05-03T00:43:28.428Z,829.56
2017-05-03T00:43:32.743Z,829.58
2017-05-03T00:43:37.166Z,829.56
2017-05-03T00:43:41.604Z,829.54
2017-05-03T00:43:46.033Z,829.58
2017-05-03T00:43:50.498Z,829.62
2017-05-03T00:43:54.921Z,829.6
2017-05-03T00:43:59.111Z,829.62
2017-05-03T00:44:03.563Z,829.6
2017-05-03T00:44:07.644Z,829.62
2017-05-03T00:44:12.071Z,829.61
2017-05-03T00:44:16.155Z,829.64
2017-05-03T00:44:20.474Z,829.6
2017-05-03T00:44:24.904Z,829.66
2017-05-03T00:44:29.329Z,829.63
2017-05-03T00:44:33.649Z,829.62
2017-05-03T00:44:38.132Z,829.64
2017-05-03T00:44:42.564Z,829.65
2017-05-03T00:44:46.994Z,829.61
2017-05-03T00:44:51.326Z,829.66
2017-05-03T00:44:55.759Z,829.65
2017-05-03T00:45:00.076Z,829.65
2017-05-03T00:45:04.635Z,829.65
2017-05-03T00:45:08.949Z,829.67
2017-05-03T00:45:13.152Z,829.68
2017-05-03T00:45:17.339Z,829.65
2017-05-03T00:45:21.762Z,829.67
2017-05-03T00:45:26.213Z,829.67
2017-05-03T00:45:30.643Z,829.66
2017-05-03T00:45:34.963Z,829.7
2017-05-03T00:45:39.401Z,829.68
2017-05-03T00:45:43.858Z,829.7
2017-05-03T00:45:48.285Z,829.69
2017-05-03T00:45:52.728Z,829.7
2017-05-03T00:45:57.156Z,829.75
2017-05-03T00:46:01.462Z,829.71
2017-05-03T00:46:05.650Z,829.71
2017-05-03T00:46:09.863Z,829.7
2017-05-03T00:46:13.941Z,829.71
2017-05-03T00:46:18.378Z,829.74
2017-05-03T00:46:22.803Z,829.74
2017-05-03T00:46:27.229Z,829.75
2017-05-03T00:46:31.659Z,829.73
2017-05-03T00:46:36.091Z,829.74
2017-05-03T00:46:40.537Z,829.76
2017-05-03T00:46:44.980Z,829.75
2017-05-03T00:46:49.295Z,829.76
2017-05-03T00:46:53.729Z,829.77
2017-05-03T00:46:58.161Z,829.74
2017-05-03T00:47:02.787Z,829.76
2017-05-03T00:47:07.101Z,829.78
2017-05-03T00:47:11.575Z,829.78
2017-05-03T00:47:15.651Z,829.8
2017-05-03T00:47:20.076Z,829.77
2017-05-03T00:47:24.511Z,829.82
2017-05-03T00:47:28.822Z,829.82
2017-05-03T00:47:33.256Z,829.8
2017-05-03T00:47:37.566Z,829.83
2017-05-03T00:47:41.875Z,829.8
2017-05-03T00:47:46.309Z,829.82
2017-05-03T00:47:50.663Z,829.83
2017-05-03T00:47:54.860Z,829.84
2017-05-03T00:47:59.294Z,829.86
2017-05-03T00:48:03.729Z,829.87
2017-05-03T00:48:08.044Z,829.84
2017-05-03T00:48:12.359Z,829.85
2017-05-03T00:48:16.795Z,829.82
2017-05-03T00:48:21.239Z,829.88
2017-05-03T00:48:25.682Z,829.88
2017-05-03T00:48:30.110Z,829.87
2017-05-03T00:48:34.425Z,829.89
2017-05-03T00:48:38.854Z,829.89
2017-05-03T00:48:43.293Z,829.9
2017-05-03T00:48:47.495Z,829.91
2017-05-03T00:48:51.929Z,829.9
2017-05-03T00:48:56.363Z,829.89
2017-05-03T00:49:00.851Z,829.93
2017-05-03T00:49:05.420Z,829.91
2017-05-03T00:49:09.738Z,829.93
2017-05-03T00:49:14.047Z,829.95
2017-05-03T00:49:18.364Z,829.97
2017-05-03T00:49:22.791Z,829.94
2017-05-03T00:49:27.226Z,829.94
2017-05-03T00:49:31.429Z,829.98
2017-05-03T00:49:35.512Z,829.96
2017-05-03T00:49:39.826Z,829.97
2017-05-03T00:49:44.257Z,830
2017-05-03T00:49:48.574Z,829.98
2017-05-03T00:49:53.039Z,829.98
2017-05-03T00:49:57.476Z,829.97
2017-05-03T00:50:01.791Z,829.99
2017-05-03T00:50:05.884Z,830.02
2017-05-03T00:50:10.077Z,829.97
2017-05-03T00:50:14.271Z,829.97
2017-05-03T00:50:18.697Z,829.99
2017-05-03T00:50:23.003Z,830.03
2017-05-03T00:50:27.428Z,830.04
2017-05-03T00:50:31.739Z,830.02
2017-05-03T00:50:36.170Z,830.02
2017-05-03T00:50:40.476Z,830.02
2017-05-03T00:50:44.899Z,830.04
2017-05-03T00:50:49.214Z,830.03
2017-05-03T00:50:53.643Z,830.08
2017-05-03T00:50:58.075Z,830.02
2017-05-03T00:51:02.757Z,830.06
2017-05-03T00:51:07.203Z,830.05
2017-05-03T00:51:11.523Z,830.09
2017-05-03T00:51:15.835Z,830.05
2017-05-03T00:51:20.151Z,830.1
2017-05-03T00:51:24.585Z,830.1
2017-05-03T00:51:28.774Z,830.09
2017-05-03T00:51:33.203Z,830.09
2017-05-03T00:51:37.520Z,830.07
2017-05-03T00:51:41.995Z,830.11
2017-05-03T00:51:46.304Z,830.05
2017-05-03T00:51:50.740Z,830.09
2017-05-03T00:51:55.181Z,830.08
2017-05-03T00:51:59.514Z,830.11
2017-05-03T00:52:03.973Z,830.1
2017-05-03T00:52:08.046Z,830.1
2017-05-03T00:52:12.240Z,830.1
2017-05-03T00:52:16.589Z,830.12
2017-05-03T00:52:21.014Z,830.11
2017-05-03T00:52:25.443Z,830.13
2017-05-03T00:52:29.868Z,830.17
2017-05-03T00:52:34.194Z,830.11
2017-05-03T00:52:38.624Z,830.12
2017-05-03T00:52:43.058Z,830.15
2017-05-03T00:52:47.373Z,830.12
2017-05-03T00:52:51.858Z,830.14
2017-05-03T00:52:56.296Z,830.16
2017-05-03T00:53:00.622Z,830.16
2017-05-03T00:53:04.821Z,830.13
2017-05-03T00:53:09.261Z,830.17
2017-05-03T00:53:13.568Z,830.15
2017-05-03T00:53:17.782Z,830.14
2017-05-03T00:53:22.219Z,830.14
2017-05-03T00:53:26.656Z,830.12
2017-05-03T00:53:30.969Z,830.13
2017-05-03T00:53:35.405Z,830.16
2017-05-03T00:53:39.722Z,830.16
2017-05-03T00:53:44.149Z,830.13
2017-05-03T00:53:48.466Z,830.18
2017-05-03T00:53:52.906Z,830.2
2017-05-03T00:53:57.345Z,830.14
2017-05-03T00:54:01.670Z,830.16
2017-05-03T00:54:06.156Z,830.21
2017-05-03T00:54:10.582Z,830.24
2017-05-03T00:54:14.909Z,830.18
2017-05-03T00:54:19.228Z,830.19
2017-05-03T00:54:23.664Z,830.21
2017-05-03T00:54:28.096Z,830.18
2017-05-03T00:54:32.293Z,830.19
2017-05-03T00:54:36.731Z,830.19
2017-05-03T00:54:41.161Z,830.18
2017-05-03T00:54:45.587Z,830.2